createdAt,value
2018-07-30T00:00:47.686Z,23.00
2018-07-30T00:03:16.181Z,22.90
2018-07-30T00:05:44.677Z,22.90
2018-07-30T00:08:13.154Z,22.80
2018-07-30T00:10:41.652Z,22.90
2018-07-30T00:13:10.155Z,22.90
2018-07-30T00:15:38.729Z,22.90
2018-07-30T00:18:07.213Z,22.80
2018-07-30T00:20:35.709Z,22.90
2018-07-30T00:23:04.176Z,22.90
2018-07-30T00:25:32.657Z,22.80
2018-07-30T00:28:01.105Z,22.80
2018-07-30T00:30:29.588Z,22.80
2018-07-30T00:32:58.058Z,22.70
2018-07-30T00:35:26.587Z,22.50
2018-07-30T00:37:55.035Z,22.50
2018-07-30T00:40:23.527Z,22.50
2018-07-30T00:42:51.987Z,22.60
2018-07-30T00:45:20.477Z,22.50
2018-07-30T00:47:48.925Z,22.50
2018-07-30T00:50:17.422Z,22.50
2018-07-30T00:52:45.931Z,22.50
2018-07-30T00:55:14.499Z,22.40
2018-07-30T00:57:43.083Z,22.40
2018-07-30T01:00:11.577Z,22.40
2018-07-30T01:02:40.046Z,22.40
2018-07-30T01:05:08.566Z,22.40
2018-07-30T01:07:37.052Z,22.40
2018-07-30T01:10:05.896Z,22.40
2018-07-30T01:12:34.363Z,22.40
2018-07-30T01:15:02.865Z,22.40
2018-07-30T01:17:31.326Z,22.40
2018-07-30T01:19:59.815Z,22.30
2018-07-30T01:22:28.360Z,22.50
2018-07-30T01:24:56.903Z,22.50
2018-07-30T01:27:25.378Z,22.50
2018-07-30T01:29:53.850Z,22.50
2018-07-30T01:32:22.333Z,22.40
2018-07-30T01:34:50.845Z,22.20
2018-07-30T01:37:19.504Z,22.20
2018-07-30T01:39:47.946Z,22.30
2018-07-30T01:42:16.427Z,22.10
2018-07-30T01:47:13.085Z,22.00
2018-07-30T01:52:09.856Z,22.00
2018-07-30T01:54:38.302Z,22.00
2018-07-30T01:57:06.790Z,22.00
2018-07-30T02:04:31.987Z,22.00
2018-07-30T02:07:00.542Z,22.00
2018-07-30T02:09:29.005Z,22.00
2018-07-30T02:16:53.822Z,21.90
2018-07-30T02:19:22.289Z,21.90
2018-07-30T02:21:50.754Z,21.80
2018-07-30T02:24:19.289Z,21.90
2018-07-30T02:31:44.074Z,21.70
2018-07-30T02:34:12.546Z,21.70
2018-07-30T02:36:41.103Z,21.70
2018-07-30T02:39:12.314Z,21.70
2018-07-30T02:41:40.880Z,21.70
2018-07-30T02:44:09.376Z,21.60
2018-07-30T02:46:38.338Z,21.50
2018-07-30T02:49:07.147Z,21.40
2018-07-30T02:51:35.606Z,21.40
2018-07-30T02:54:04.123Z,21.40
2018-07-30T02:56:32.570Z,21.50
2018-07-30T02:59:01.039Z,21.50
2018-07-30T03:01:29.595Z,21.50
2018-07-30T03:03:58.058Z,21.50
2018-07-30T03:08:54.723Z,21.40
2018-07-30T03:11:23.194Z,21.40
2018-07-30T03:18:48.009Z,21.50
2018-07-30T03:21:16.479Z,21.40
2018-07-30T03:23:45.002Z,21.30
2018-07-30T03:26:13.483Z,21.40
2018-07-30T03:28:41.972Z,21.40
2018-07-30T03:31:10.435Z,21.40
2018-07-30T03:33:38.899Z,21.30
2018-07-30T03:36:07.370Z,21.30
2018-07-30T03:38:35.889Z,21.20
2018-07-30T03:41:04.362Z,21.10
2018-07-30T03:46:01.037Z,21.10
2018-07-30T03:48:29.490Z,21.10
2018-07-30T03:50:57.949Z,21.00
2018-07-30T03:53:26.454Z,21.10
2018-07-30T03:55:54.917Z,21.10
2018-07-30T03:58:23.398Z,21.10
2018-07-30T04:00:51.867Z,21.10
2018-07-30T04:03:20.392Z,21.10
2018-07-30T04:13:13.405Z,21.00
2018-07-30T04:15:41.867Z,20.90
2018-07-30T04:18:10.353Z,20.90
2018-07-30T04:20:38.802Z,21.20
2018-07-30T04:23:07.285Z,21.50
2018-07-30T04:25:35.799Z,21.70
2018-07-30T04:28:04.278Z,22.10
2018-07-30T04:37:57.310Z,22.30
2018-07-30T04:40:25.831Z,22.50
2018-07-30T04:42:54.295Z,22.60
2018-07-30T04:45:22.796Z,23.00
2018-07-30T04:47:51.267Z,22.90
2018-07-30T04:50:19.827Z,22.90
2018-07-30T04:55:16.561Z,23.00
2018-07-30T05:00:13.257Z,23.40
2018-07-30T05:02:41.731Z,23.30
2018-07-30T05:05:10.223Z,23.40
2018-07-30T05:07:38.670Z,23.10
2018-07-30T05:10:07.151Z,23.20
2018-07-30T05:12:35.599Z,23.40
2018-07-30T05:15:04.146Z,23.60
2018-07-30T05:17:32.593Z,23.50
2018-07-30T05:20:01.059Z,23.80
2018-07-30T05:22:29.495Z,24.30
2018-07-30T05:24:57.989Z,24.10
2018-07-30T05:27:26.462Z,24.00
2018-07-30T05:29:54.948Z,23.90
2018-07-30T05:32:23.422Z,24.50
2018-07-30T05:34:51.901Z,24.30
2018-07-30T05:37:20.455Z,24.50
2018-07-30T05:39:48.866Z,24.70
2018-07-30T05:42:17.338Z,24.60
2018-07-30T05:44:45.831Z,24.70
2018-07-30T05:47:14.326Z,24.80
2018-07-30T05:49:42.777Z,24.60
2018-07-30T05:52:11.274Z,24.60
2018-07-30T05:54:39.749Z,24.20
2018-07-30T05:57:08.262Z,24.30
2018-07-30T05:59:36.870Z,24.10
2018-07-30T06:02:05.279Z,24.10
2018-07-30T06:04:34.562Z,24.20
2018-07-30T06:07:03.031Z,24.40
2018-07-30T06:11:59.691Z,24.60
2018-07-30T06:14:28.223Z,24.70
2018-07-30T06:16:56.660Z,24.70
2018-07-30T06:19:25.131Z,24.70
2018-07-30T06:21:53.602Z,24.70
2018-07-30T06:24:22.090Z,25.00
2018-07-30T06:26:50.547Z,24.60
2018-07-30T06:29:19.051Z,24.80
2018-07-30T06:31:47.627Z,24.70
2018-07-30T06:34:16.222Z,24.90
2018-07-30T06:36:44.698Z,25.10
2018-07-30T06:39:13.186Z,25.00
2018-07-30T06:41:41.663Z,25.00
2018-07-30T06:44:10.118Z,25.10
2018-07-30T06:46:38.605Z,25.30
2018-07-30T06:49:07.163Z,25.50
2018-07-30T06:51:35.665Z,25.60
2018-07-30T06:54:04.162Z,25.40
2018-07-30T06:56:32.631Z,25.40
2018-07-30T06:59:01.093Z,25.60
2018-07-30T07:01:29.581Z,25.70
2018-07-30T07:03:58.089Z,25.80
2018-07-30T07:06:26.577Z,26.00
2018-07-30T07:08:55.037Z,26.10
2018-07-30T07:11:23.503Z,25.80
2018-07-30T07:13:51.938Z,26.30
2018-07-30T07:18:48.626Z,26.90
2018-07-30T07:21:17.189Z,26.90
2018-07-30T07:23:45.626Z,27.20
2018-07-30T07:26:14.124Z,27.20
2018-07-30T07:28:42.594Z,27.40
2018-07-30T07:31:11.178Z,27.50
2018-07-30T07:33:39.642Z,27.70
2018-07-30T07:36:08.136Z,28.10
2018-07-30T07:38:36.572Z,28.30
2018-07-30T07:41:05.095Z,27.70
2018-07-30T07:43:33.586Z,27.90
2018-07-30T07:46:02.118Z,28.50
2018-07-30T07:48:30.614Z,28.50
2018-07-30T07:50:59.321Z,28.10
2018-07-30T07:53:27.626Z,28.00
2018-07-30T07:55:56.116Z,28.30
2018-07-30T07:58:24.585Z,28.00
2018-07-30T08:00:53.056Z,28.40
2018-07-30T08:03:21.526Z,28.60
2018-07-30T08:05:50.022Z,28.70
2018-07-30T08:08:18.576Z,28.90
2018-07-30T08:10:47.063Z,28.70
2018-07-30T08:13:15.535Z,28.70
2018-07-30T08:15:44.034Z,28.50
2018-07-30T08:18:12.524Z,28.70
2018-07-30T08:20:41.074Z,28.90
2018-07-30T08:23:09.537Z,28.90
2018-07-30T08:28:06.290Z,29.00
2018-07-30T08:33:03.425Z,29.10
2018-07-30T08:35:31.957Z,29.00
2018-07-30T08:38:00.430Z,29.10
2018-07-30T08:42:57.166Z,29.50
2018-07-30T08:45:25.733Z,29.60
2018-07-30T08:47:54.281Z,29.60
2018-07-30T08:50:22.845Z,29.50
2018-07-30T08:52:51.378Z,29.70
2018-07-30T08:55:19.942Z,29.70
2018-07-30T08:57:48.478Z,29.70
2018-07-30T09:02:45.246Z,29.70
2018-07-30T09:05:13.774Z,29.90
2018-07-30T09:07:42.285Z,29.90
2018-07-30T09:10:10.826Z,30.00
2018-07-30T09:12:39.429Z,30.30
2018-07-30T09:20:05.521Z,30.60
2018-07-30T09:27:30.414Z,30.40
2018-07-30T09:29:58.939Z,30.40
2018-07-30T09:32:27.493Z,30.70
2018-07-30T09:34:56.006Z,30.60
2018-07-30T09:39:52.839Z,30.80
2018-07-30T09:42:21.336Z,31.10
2018-07-30T09:44:49.891Z,30.90
2018-07-30T09:47:18.331Z,30.90
2018-07-30T09:49:46.784Z,30.90
2018-07-30T09:52:15.243Z,31.00
2018-07-30T09:54:43.747Z,30.90
2018-07-30T09:57:12.270Z,30.90
2018-07-30T09:59:40.762Z,31.00
2018-07-30T10:02:09.285Z,31.10
2018-07-30T10:04:37.791Z,31.30
2018-07-30T10:09:34.474Z,31.50
2018-07-30T10:12:03.134Z,31.20
2018-07-30T10:14:31.665Z,31.20
2018-07-30T10:17:00.120Z,31.40
2018-07-30T10:19:28.594Z,31.50
2018-07-30T10:21:57.098Z,31.50
2018-07-30T10:24:25.634Z,31.70
2018-07-30T10:26:54.117Z,31.80
2018-07-30T10:34:19.027Z,31.70
2018-07-30T10:36:47.535Z,31.90
2018-07-30T10:41:44.267Z,31.70
2018-07-30T10:44:12.737Z,32.00
2018-07-30T10:46:41.785Z,31.70
2018-07-30T10:49:10.309Z,31.60
2018-07-30T10:51:38.881Z,31.80
2018-07-30T10:54:07.967Z,32.00
2018-07-30T10:56:36.502Z,32.00
2018-07-30T11:01:33.186Z,32.30
2018-07-30T11:04:01.756Z,32.40
2018-07-30T11:08:58.639Z,32.70
2018-07-30T11:11:27.427Z,32.60
2018-07-30T11:13:55.940Z,32.30
2018-07-30T11:16:24.667Z,32.50
2018-07-30T11:18:53.159Z,32.50
2018-07-30T11:23:50.107Z,32.00
2018-07-30T11:26:18.607Z,32.30
2018-07-30T11:31:15.245Z,32.40
2018-07-30T11:33:43.686Z,32.50
2018-07-30T11:36:12.161Z,32.70
2018-07-30T11:38:40.726Z,32.70
2018-07-30T11:41:09.170Z,32.50
2018-07-30T11:43:37.630Z,32.50
2018-07-30T11:46:06.088Z,32.40
2018-07-30T11:48:34.587Z,32.10
2018-07-30T11:51:03.041Z,32.20
2018-07-30T11:53:31.632Z,32.40
2018-07-30T11:56:00.082Z,32.80
2018-07-30T11:58:28.555Z,33.00
2018-07-30T12:03:25.217Z,33.00
2018-07-30T12:05:53.662Z,33.10
2018-07-30T12:08:22.122Z,33.20
2018-07-30T12:10:50.696Z,33.10
2018-07-30T12:13:19.312Z,33.20
2018-07-30T12:15:47.747Z,33.10
2018-07-30T12:18:16.234Z,32.90
2018-07-30T12:20:44.694Z,33.10
2018-07-30T12:23:13.167Z,33.20
2018-07-30T12:28:09.743Z,33.20
2018-07-30T12:30:38.327Z,32.90
2018-07-30T12:33:06.761Z,32.90
2018-07-30T12:35:35.203Z,33.20
2018-07-30T12:38:03.660Z,33.50
2018-07-30T12:40:34.599Z,33.60
2018-07-30T12:43:04.458Z,33.40
2018-07-30T12:45:38.157Z,33.20
2018-07-30T12:48:07.038Z,33.10
2018-07-30T12:50:36.208Z,33.00
2018-07-30T12:53:04.735Z,33.30
2018-07-30T12:55:33.298Z,33.40
2018-07-30T12:58:01.778Z,33.30
2018-07-30T13:00:30.248Z,33.20
2018-07-30T13:02:58.942Z,33.20
2018-07-30T13:05:27.339Z,33.50
2018-07-30T13:07:55.834Z,33.80
2018-07-30T13:10:24.342Z,33.70
2018-07-30T13:12:53.065Z,33.50
2018-07-30T13:15:21.557Z,33.40
2018-07-30T13:17:50.039Z,33.40
2018-07-30T13:20:18.534Z,33.40
2018-07-30T13:22:46.964Z,33.30
2018-07-30T13:27:43.598Z,33.30
2018-07-30T13:30:12.114Z,33.30
2018-07-30T13:32:40.596Z,33.60
2018-07-30T13:35:10.415Z,33.70
2018-07-30T13:37:38.919Z,33.70
2018-07-30T13:40:07.461Z,33.50
2018-07-30T13:45:04.606Z,33.90
2018-07-30T13:47:33.044Z,33.90
2018-07-30T13:50:01.522Z,33.90
2018-07-30T13:52:29.974Z,33.60
2018-07-30T13:59:54.792Z,34.10
2018-07-30T14:02:23.223Z,34.00
2018-07-30T14:04:51.704Z,34.00
2018-07-30T14:07:20.158Z,33.70
2018-07-30T14:09:48.703Z,33.90
2018-07-30T14:12:17.152Z,34.10
2018-07-30T14:14:45.638Z,34.30
2018-07-30T14:17:14.091Z,34.20
2018-07-30T14:19:42.648Z,34.30
2018-07-30T14:22:11.167Z,34.30
2018-07-30T14:24:39.633Z,34.40
2018-07-30T14:27:08.129Z,34.20
2018-07-30T14:29:36.642Z,33.90
2018-07-30T14:32:05.103Z,34.10
2018-07-30T14:34:33.571Z,34.00
2018-07-30T14:37:02.062Z,34.10
2018-07-30T14:39:30.574Z,33.90
2018-07-30T14:41:59.053Z,34.00
2018-07-30T14:44:27.517Z,33.80
2018-07-30T14:46:56.011Z,33.90
2018-07-30T14:49:24.956Z,33.90
2018-07-30T14:54:21.855Z,34.10
2018-07-30T14:56:50.333Z,34.10
2018-07-30T14:59:19.011Z,34.00
2018-07-30T15:01:47.591Z,34.20
2018-07-30T15:04:16.083Z,34.30
2018-07-30T15:06:44.558Z,34.30
2018-07-30T15:09:14.147Z,34.30
2018-07-30T15:11:42.620Z,34.20
2018-07-30T15:14:11.114Z,34.10
2018-07-30T15:16:39.592Z,34.30
2018-07-30T15:19:08.530Z,34.30
2018-07-30T15:21:37.207Z,34.30
2018-07-30T15:24:05.646Z,34.50
2018-07-30T15:26:34.135Z,34.30
2018-07-30T15:29:02.674Z,34.00
2018-07-30T15:31:31.286Z,33.80
2018-07-30T15:33:59.741Z,33.70
2018-07-30T15:36:28.230Z,33.70
2018-07-30T15:38:56.661Z,33.60
2018-07-30T15:41:25.149Z,33.60
2018-07-30T15:43:53.646Z,33.70
2018-07-30T15:46:22.170Z,33.50
2018-07-30T15:51:18.769Z,33.30
2018-07-30T15:53:47.231Z,33.30
2018-07-30T15:56:15.725Z,33.70
2018-07-30T15:58:44.316Z,34.00
2018-07-30T16:01:12.775Z,33.90
2018-07-30T16:03:41.247Z,33.80
2018-07-30T16:08:37.830Z,34.00
2018-07-30T16:11:06.545Z,34.00
2018-07-30T16:13:35.038Z,34.00
2018-07-30T16:16:03.578Z,33.80
2018-07-30T16:18:32.040Z,33.90
2018-07-30T16:21:00.486Z,33.90
2018-07-30T16:23:28.981Z,33.90
2018-07-30T16:25:57.422Z,34.00
2018-07-30T16:28:25.933Z,34.30
2018-07-30T16:30:54.514Z,34.30
2018-07-30T16:33:23.064Z,34.40
2018-07-30T16:35:51.535Z,34.40
2018-07-30T16:38:20.074Z,34.60
2018-07-30T16:40:48.537Z,34.50
2018-07-30T16:43:17.070Z,34.70
2018-07-30T16:45:45.569Z,34.60
2018-07-30T16:48:14.058Z,34.30
2018-07-30T16:50:42.720Z,33.90
2018-07-30T16:53:11.341Z,33.80
2018-07-30T16:55:39.884Z,33.60
2018-07-30T16:58:08.388Z,33.70
2018-07-30T17:00:36.889Z,33.60
2018-07-30T17:03:05.660Z,33.60
2018-07-30T17:05:34.102Z,33.60
2018-07-30T17:08:02.597Z,33.40
2018-07-30T17:15:27.438Z,33.20
2018-07-30T17:17:55.917Z,33.20
2018-07-30T17:20:24.386Z,33.10
2018-07-30T17:22:52.884Z,33.00
2018-07-30T17:25:21.449Z,32.90
2018-07-30T17:32:46.279Z,33.00
2018-07-30T17:37:42.915Z,32.90
2018-07-30T17:40:11.474Z,32.90
2018-07-30T17:42:39.907Z,32.70
2018-07-30T17:45:10.768Z,32.50
2018-07-30T17:47:39.233Z,32.30
2018-07-30T17:50:08.085Z,32.20
2018-07-30T17:52:36.604Z,32.10
2018-07-30T17:55:05.064Z,32.10
2018-07-30T18:00:01.794Z,31.90
2018-07-30T18:02:30.326Z,31.90
2018-07-30T18:04:59.083Z,31.80
2018-07-30T18:07:27.570Z,31.70
2018-07-30T18:09:56.170Z,31.50
2018-07-30T18:12:24.653Z,31.50
2018-07-30T18:14:53.126Z,31.50
2018-07-30T18:17:21.706Z,31.40
2018-07-30T18:19:50.144Z,31.40
2018-07-30T18:22:18.573Z,31.30
2018-07-30T18:24:47.038Z,31.20
2018-07-30T18:27:15.564Z,31.20
2018-07-30T18:29:44.070Z,31.10
2018-07-30T18:32:12.478Z,31.00
2018-07-30T18:34:41.058Z,30.90
2018-07-30T18:37:09.545Z,30.90
2018-07-30T18:39:38.313Z,30.80
2018-07-30T18:42:07.063Z,30.70
2018-07-30T18:44:35.614Z,30.70
2018-07-30T18:47:04.092Z,30.70
2018-07-30T18:49:32.558Z,30.70
2018-07-30T18:52:01.012Z,30.60
2018-07-30T18:54:29.451Z,30.50
2018-07-30T18:56:57.873Z,30.50
2018-07-30T18:59:26.345Z,30.40
2018-07-30T19:01:54.820Z,30.30
2018-07-30T19:04:23.330Z,30.30
2018-07-30T19:06:51.825Z,30.20
2018-07-30T19:09:20.378Z,30.20
2018-07-30T19:11:48.962Z,30.10
2018-07-30T19:14:17.415Z,30.10
2018-07-30T19:16:50.297Z,30.10
2018-07-30T19:19:18.819Z,30.00
2018-07-30T19:21:47.387Z,29.90
2018-07-30T19:24:16.073Z,29.80
2018-07-30T19:26:44.709Z,29.80
2018-07-30T19:29:13.158Z,29.80
2018-07-30T19:31:41.632Z,29.80
2018-07-30T19:34:10.065Z,29.70
2018-07-30T19:36:38.589Z,29.60
2018-07-30T19:39:09.686Z,29.60
2018-07-30T19:41:38.568Z,29.50
2018-07-30T19:44:07.365Z,29.50
2018-07-30T19:46:35.778Z,29.40
2018-07-30T19:49:04.561Z,29.30
2018-07-30T19:51:33.199Z,29.20
2018-07-30T19:54:01.677Z,29.10
2018-07-30T19:56:30.187Z,29.00
2018-07-30T19:58:58.848Z,28.90
2018-07-30T20:01:27.236Z,28.70
2018-07-30T20:03:55.756Z,28.60
2018-07-30T20:06:24.487Z,28.50
2018-07-30T20:11:21.132Z,28.40
2018-07-30T20:13:49.707Z,28.20
2018-07-30T20:16:18.201Z,28.10
2018-07-30T20:18:46.745Z,28.10
2018-07-30T20:21:15.207Z,28.00
2018-07-30T20:26:11.907Z,28.00
2018-07-30T20:28:40.405Z,27.90
2018-07-30T20:31:08.973Z,28.10
2018-07-30T20:33:37.543Z,28.20
2018-07-30T20:36:05.982Z,28.30
2018-07-30T20:38:34.457Z,28.20
2018-07-30T20:41:02.982Z,28.20
2018-07-30T20:43:31.470Z,28.20
2018-07-30T20:45:59.925Z,28.30
2018-07-30T20:48:28.447Z,28.20
2018-07-30T20:50:56.907Z,28.20
2018-07-30T20:53:25.388Z,28.20
2018-07-30T20:55:53.872Z,28.20
2018-07-30T20:58:22.378Z,28.20
2018-07-30T21:00:50.831Z,28.10
2018-07-30T21:03:19.388Z,28.10
2018-07-30T21:05:47.958Z,27.80
2018-07-30T21:08:16.469Z,27.60
2018-07-30T21:10:45.986Z,27.40
2018-07-30T21:13:16.033Z,27.40
2018-07-30T21:15:44.742Z,27.40
2018-07-30T21:18:13.234Z,27.50
2018-07-30T21:20:41.709Z,27.20
2018-07-30T21:23:10.226Z,27.00
2018-07-30T21:25:38.737Z,26.90
2018-07-30T21:28:07.393Z,26.90
2018-07-30T21:35:32.365Z,26.80
2018-07-30T21:38:00.872Z,26.70
2018-07-30T21:40:29.405Z,26.70
2018-07-30T21:42:57.903Z,26.70
2018-07-30T21:45:26.537Z,26.70
2018-07-30T21:47:55.234Z,26.60
2018-07-30T21:55:20.061Z,26.40
2018-07-30T21:57:48.566Z,26.40
2018-07-30T22:00:23.120Z,26.20
2018-07-30T22:02:53.103Z,26.20
2018-07-30T22:05:21.564Z,26.20
2018-07-30T22:10:18.288Z,26.10
2018-07-30T22:12:46.798Z,26.00
2018-07-30T22:15:15.294Z,26.00
2018-07-30T22:20:11.961Z,25.90
2018-07-30T22:22:40.429Z,25.80
